KTOA/TOA METAR and TAF weather

Enter ICAO airport designator
Station Type Date Time Source
KTOA METAR 2019/07/17 17:52 UTC NOAA

KTOA 171752Z 10006KT 10SM BKN015 21/16 A2997


Station Type Date Time Source
KTOA Decoded METAR 2019/07/17 17:52 UTC NOAA

Torrance, Zamperini Field Airport, CA, United States (KTOA) 33-48N 118-20W
Jul 17, 2019 - 01:52 PM EDT / 2019.07.17 1752 UTC
Wind: from the E (100 degrees) at 7 MPH (6 KT):0
Visibility: 10 mile(s):0
Sky conditions: mostly cloudy
Temperature: 69 F (21 C)
Dew Point: 60 F (16 C)
Relative Humidity: 73%
Pressure (altimeter): 29.97 in. Hg (1014 hPa)
ob: KTOA 171752Z 10006KT 10SM BKN015 21/16 A2997
cycle: 18

Station Type Date Time Source
KTOA TAF UTC NOAA

Error!

Example: see airport list